createdAt,value
2018-08-14T00:00:08.339Z,67
2018-08-14T00:00:58.397Z,67
2018-08-14T00:01:48.194Z,67
2018-08-14T00:02:38.260Z,67
2018-08-14T00:03:28.891Z,67
2018-08-14T00:04:18.612Z,67
2018-08-14T00:05:08.973Z,66.9
2018-08-14T00:05:59.074Z,66.9
2018-08-14T00:06:48.843Z,66.9
2018-08-14T00:07:39.853Z,66.9
2018-08-14T00:08:29.005Z,66.9
2018-08-14T00:09:19.273Z,66.9
2018-08-14T00:10:09.513Z,66.9
2018-08-14T00:10:59.501Z,66.9
2018-08-14T00:11:48.984Z,66.9
2018-08-14T00:12:39.530Z,66.9
2018-08-14T00:13:28.561Z,66.9
2018-08-14T00:14:19.412Z,66.9
2018-08-14T00:15:09.375Z,66.9
2018-08-14T00:15:59.304Z,66.9
2018-08-14T00:16:49.339Z,66.8
2018-08-14T00:17:39.472Z,66.8
2018-08-14T00:18:29.745Z,66.8
2018-08-14T05:06:45.989Z,64.2
2018-08-14T05:07:36.022Z,64.2
2018-08-14T05:08:26.106Z,64.2
2018-08-14T05:09:16.123Z,64.2
2018-08-14T05:10:06.189Z,64.1
2018-08-14T05:10:55.976Z,64.1
2018-08-14T05:11:46.331Z,64.1
2018-08-14T05:12:36.121Z,64.1
2018-08-14T05:13:25.890Z,64.1
2018-08-14T05:14:15.963Z,64.1
2018-08-14T05:15:06.314Z,64.1
2018-08-14T05:15:56.654Z,64.1
2018-08-14T05:16:46.487Z,64.1
2018-08-14T05:17:36.764Z,64.1
2018-08-14T05:18:26.341Z,64.1
2018-08-14T05:19:16.360Z,64.1
2018-08-14T05:20:06.501Z,64.1
2018-08-14T05:20:57.027Z,64.1
2018-08-14T05:21:46.846Z,64
2018-08-14T05:22:37.295Z,64
2018-08-14T05:23:27.243Z,64
2018-08-14T05:24:17.313Z,64
2018-08-14T05:25:07.409Z,64
2018-08-14T05:25:58.205Z,64
2018-08-14T05:26:47.223Z,63.9
2018-08-14T05:27:37.280Z,63.9
2018-08-14T05:28:27.067Z,63.9
2018-08-14T05:29:17.709Z,63.9
2018-08-14T05:30:07.208Z,63.9
2018-08-14T05:30:57.803Z,63.9
2018-08-14T05:31:47.588Z,63.9
2018-08-14T05:32:37.937Z,63.9
2018-08-14T05:33:28.483Z,63.9
2018-08-14T05:34:17.812Z,63.9
2018-08-14T05:35:07.339Z,63.9
2018-08-14T05:35:58.248Z,63.8
2018-08-14T05:36:48.298Z,63.8
2018-08-14T05:37:38.104Z,63.8
2018-08-14T05:38:27.831Z,63.8
2018-08-14T05:39:18.205Z,63.8
2018-08-14T05:40:08.551Z,63.8
2018-08-14T05:40:58.031Z,63.8
2018-08-14T05:41:48.429Z,63.8
2018-08-14T05:42:38.712Z,63.8
2018-08-14T05:43:29.651Z,63.8
2018-08-14T05:44:18.085Z,63.8
2018-08-14T05:45:08.904Z,63.8
2018-08-14T05:45:58.439Z,63.8
2018-08-14T05:46:48.814Z,63.8
2018-08-14T05:47:38.815Z,63.7
2018-08-14T05:48:28.895Z,63.7
2018-08-14T05:49:18.684Z,63.7
2018-08-14T05:50:09.059Z,63.7
2018-08-14T05:50:59.354Z,63.7
2018-08-14T05:51:49.217Z,63.7
2018-08-14T05:52:38.359Z,63.7
2018-08-14T05:53:29.574Z,63.7
2018-08-14T05:54:19.066Z,63.7
2018-08-14T05:55:09.160Z,63.7
2018-08-14T05:55:59.458Z,63.6
2018-08-14T05:56:49.274Z,63.7
2018-08-14T05:57:39.492Z,63.6
2018-08-14T05:58:29.963Z,63.6
2018-08-14T05:59:20.016Z,63.6
2018-08-14T06:00:09.264Z,63.6
2018-08-14T06:01:00.184Z,63.6
2018-08-14T06:01:51.004Z,63.6
2018-08-14T06:02:40.047Z,63.6
2018-08-14T06:03:30.352Z,63.6
2018-08-14T06:04:19.874Z,63.6
2018-08-14T06:05:10.453Z,63.6
2018-08-14T06:06:00.514Z,63.6
2018-08-14T06:06:50.073Z,63.6
2018-08-14T06:07:40.110Z,63.6
2018-08-14T06:08:30.711Z,63.5
2018-08-14T06:09:20.234Z,63.5
2018-08-14T06:10:11.263Z,63.5
2018-08-14T06:11:00.330Z,63.5
2018-08-14T06:11:50.682Z,63.5
2018-08-14T06:12:41.025Z,63.5
2018-08-14T06:13:31.100Z,63.5
2018-08-14T06:14:20.632Z,63.4
2018-08-14T06:15:10.910Z,63.4
2018-08-14T06:16:01.288Z,63.4
2018-08-14T06:16:51.409Z,63.4
2018-08-14T06:17:41.128Z,63.4
2018-08-14T06:18:31.218Z,63.4
2018-08-14T06:19:20.950Z,63.4
2018-08-14T06:20:11.323Z,63.4
2018-08-14T06:21:01.652Z,63.4
2018-08-14T06:21:51.041Z,63.4
2018-08-14T06:22:42.067Z,63.4
2018-08-14T06:23:31.857Z,63.4
2018-08-14T06:24:20.885Z,63.4
2018-08-14T06:25:11.729Z,63.4
2018-08-14T06:26:01.786Z,63.4
2018-08-14T06:26:51.832Z,63.4
2018-08-14T06:27:41.142Z,63.4
2018-08-14T06:28:33.180Z,63.3
2018-08-14T06:29:21.869Z,63.3
2018-08-14T06:30:11.640Z,63.3
2018-08-14T06:31:02.194Z,63.3
2018-08-14T06:31:52.283Z,63.3
2018-08-14T06:32:42.588Z,63.3
2018-08-14T06:33:31.807Z,63.3
2018-08-14T06:34:23.611Z,63.3
2018-08-14T06:35:12.926Z,63.3
2018-08-14T06:36:02.873Z,63.3
2018-08-14T06:36:52.985Z,63.3
2018-08-14T06:37:42.678Z,63.3
2018-08-14T06:38:32.471Z,63.3
2018-08-14T06:39:22.859Z,63.3
2018-08-14T06:40:12.882Z,63.3
2018-08-14T06:41:03.068Z,63.3
2018-08-14T06:41:53.317Z,63.2
2018-08-14T06:42:43.375Z,63.2
2018-08-14T06:43:33.413Z,63.2
2018-08-14T06:44:22.955Z,63.2
2018-08-14T06:45:13.272Z,63.2
2018-08-14T06:46:03.608Z,63.2
2018-08-14T06:46:53.158Z,63.2
2018-08-14T06:47:42.906Z,63.2
2018-08-14T06:48:33.793Z,63.2
2018-08-14T06:49:23.992Z,63.1
2018-08-14T06:50:13.921Z,63.1
2018-08-14T06:51:03.969Z,63.1
2018-08-14T06:51:53.795Z,63.1
2018-08-14T06:52:43.828Z,63.1
2018-08-14T06:53:33.658Z,63.1
2018-08-14T06:54:23.964Z,63.1
2018-08-14T06:55:14.314Z,63.1
2018-08-14T06:56:04.365Z,63.1
2018-08-14T06:56:54.147Z,63.1
2018-08-14T06:57:44.518Z,63.1
2018-08-14T06:58:33.986Z,63.1
2018-08-14T06:59:24.642Z,63.1
2018-08-14T07:00:14.125Z,63
2018-08-14T07:01:04.331Z,63.1
2018-08-14T07:01:54.862Z,63.1
2018-08-14T07:02:44.958Z,63
2018-08-14T07:03:34.409Z,63
2018-08-14T07:04:24.755Z,63
2018-08-14T07:05:14.861Z,63
2018-08-14T07:06:04.949Z,63
2018-08-14T07:06:54.944Z,63
2018-08-14T07:07:44.744Z,63
2018-08-14T07:08:34.833Z,63
2018-08-14T07:09:25.112Z,63
2018-08-14T07:10:15.509Z,62.9
2018-08-14T07:11:05.289Z,62.9
2018-08-14T07:11:55.630Z,62.9
2018-08-14T07:12:45.235Z,62.9
2018-08-14T07:13:34.712Z,62.9
2018-08-14T07:14:24.799Z,62.9
2018-08-14T07:15:14.852Z,62.8
2018-08-14T07:16:04.411Z,62.8
2018-08-14T07:16:55.290Z,62.7
2018-08-14T07:17:45.561Z,62.7
2018-08-14T07:18:35.707Z,62.6
2018-08-14T07:19:25.972Z,62.6
2018-08-14T07:20:15.501Z,62.5
2018-08-14T07:21:06.318Z,62.4
2018-08-14T07:21:56.346Z,62.4
2018-08-14T07:22:46.162Z,62.3
2018-08-14T07:23:36.282Z,62.2
2018-08-14T07:24:26.333Z,62.1
2018-08-14T07:25:16.333Z,62
2018-08-14T07:26:06.396Z,61.9
2018-08-14T07:26:56.485Z,61.8
2018-08-14T07:27:46.807Z,61.6
2018-08-14T07:28:36.881Z,61.5
2018-08-14T07:29:26.633Z,61.4
2018-08-14T07:30:16.722Z,61.2
2018-08-14T07:31:06.508Z,61.1
2018-08-14T07:31:56.015Z,60.9
2018-08-14T07:32:47.208Z,60.9
2018-08-14T07:33:37.327Z,60.7
2018-08-14T07:34:27.363Z,60.6
2018-08-14T07:35:17.416Z,60.6
2018-08-14T07:36:07.010Z,60.4
2018-08-14T07:36:57.249Z,60.3
2018-08-14T07:37:47.100Z,60.3
2018-08-14T07:38:37.135Z,60.2
2018-08-14T07:39:27.473Z,60.2
2018-08-14T07:40:16.989Z,60.1
2018-08-14T07:41:07.851Z,60.1
2018-08-14T07:41:57.101Z,60.1
2018-08-14T07:42:46.913Z,60.1
2018-08-14T07:43:37.766Z,60.1
2018-08-14T07:44:27.848Z,60.1
2018-08-14T07:45:17.643Z,60
2018-08-14T07:46:07.438Z,59.9
2018-08-14T07:46:58.325Z,59.8
2018-08-14T07:47:48.140Z,59.8
2018-08-14T07:48:37.610Z,59.8
2018-08-14T07:49:28.524Z,59.8
2018-08-14T07:50:18.678Z,59.8
2018-08-14T07:51:07.802Z,59.8
2018-08-14T07:51:58.763Z,59.7
2018-08-14T07:52:48.504Z,59.7
2018-08-14T07:53:37.979Z,59.7
2018-08-14T07:54:28.635Z,59.6
2018-08-14T07:55:18.724Z,59.6
2018-08-14T07:56:09.033Z,59.6
2018-08-14T07:56:59.067Z,59.5
2018-08-14T07:57:49.632Z,59.5
2018-08-14T07:58:39.030Z,59.4
2018-08-14T07:59:29.313Z,59.4
2018-08-14T08:00:19.501Z,59.4
2018-08-14T08:01:09.162Z,59.4
2018-08-14T08:01:59.440Z,59.4
2018-08-14T08:02:49.001Z,59.4
2018-08-14T08:03:39.042Z,59.4
2018-08-14T08:04:29.681Z,59.4
2018-08-14T08:05:19.183Z,59.4
2018-08-14T08:06:09.739Z,59.4
2018-08-14T08:06:59.858Z,59.4
2018-08-14T08:07:49.679Z,59.1
2018-08-14T08:08:39.778Z,58.7
2018-08-14T08:09:30.136Z,58.1
2018-08-14T08:10:19.905Z,57.5
2018-08-14T08:11:09.918Z,56.8
2018-08-14T08:12:00.455Z,55.9
2018-08-14T08:12:50.070Z,55.3
2018-08-14T08:13:39.830Z,54.9
2018-08-14T08:14:30.181Z,54.7
2018-08-14T08:15:20.712Z,54.6
2018-08-14T08:16:10.349Z,54.4
2018-08-14T08:16:59.895Z,54.4
2018-08-14T08:17:49.604Z,54.3
2018-08-14T08:18:40.491Z,54.3
2018-08-14T08:19:30.864Z,54.3
2018-08-14T08:20:20.860Z,54.2
2018-08-14T08:21:10.702Z,54.2
2018-08-14T08:22:00.581Z,54.2
2018-08-14T08:22:51.117Z,54.1
2018-08-14T08:23:41.165Z,54.1
2018-08-14T08:24:31.047Z,54.1
2018-08-14T08:25:20.183Z,54.1
2018-08-14T08:26:11.087Z,54
2018-08-14T08:27:01.431Z,53.9
2018-08-14T08:27:51.479Z,53.9
2018-08-14T08:28:41.007Z,53.9
2018-08-14T08:29:31.614Z,53.9
2018-08-14T08:30:21.432Z,53.9
2018-08-14T08:31:11.778Z,53.9
2018-08-14T08:32:01.606Z,53.9
2018-08-14T08:32:51.605Z,53.9
2018-08-14T08:33:41.408Z,53.9
2018-08-14T08:34:31.530Z,53.9
2018-08-14T08:35:22.071Z,53.8
2018-08-14T08:36:12.129Z,53.8
2018-08-14T08:37:01.663Z,53.8
2018-08-14T08:37:52.278Z,53.8
2018-08-14T08:38:41.493Z,53.8
2018-08-14T08:39:32.360Z,53.8
2018-08-14T08:40:22.455Z,53.8
2018-08-14T08:41:11.502Z,53.8
2018-08-14T08:42:02.894Z,53.8
2018-08-14T08:42:52.405Z,53.8
2018-08-14T08:43:41.612Z,53.8
2018-08-14T08:44:32.057Z,53.8
2018-08-14T08:45:21.497Z,53.8
2018-08-14T08:46:12.166Z,53.8
2018-08-14T08:47:02.490Z,53.8
2018-08-14T08:47:52.589Z,53.8
2018-08-14T08:48:42.546Z,53.8
2018-08-14T08:49:31.830Z,53.8
2018-08-14T08:50:22.627Z,53.8
2018-08-14T08:51:12.242Z,53.8
2018-08-14T08:52:02.613Z,53.7
2018-08-14T08:52:52.063Z,53.7
2018-08-14T08:53:43.594Z,53.7
2018-08-14T08:54:33.340Z,53.7
2018-08-14T08:55:22.961Z,53.7
2018-08-14T08:56:13.823Z,53.7
2018-08-14T08:57:03.585Z,53.7
2018-08-14T08:57:53.078Z,53.7
2018-08-14T08:58:43.427Z,53.7
2018-08-14T08:59:34.036Z,53.6
2018-08-14T09:00:24.038Z,53.7
2018-08-14T09:01:14.108Z,53.7
2018-08-14T09:02:04.146Z,53.7
2018-08-14T09:02:54.222Z,53.6
2018-08-14T09:03:44.935Z,53.7
2018-08-14T09:04:34.070Z,53.7
2018-08-14T09:20:58.460Z,52.3
2018-08-14T09:21:48.536Z,52.2
2018-08-14T09:22:38.423Z,52.3
2018-08-14T09:23:28.929Z,52.3
2018-08-14T09:25:09.061Z,52.4
2018-08-14T09:25:59.179Z,52.5
2018-08-14T09:26:49.168Z,52.6
2018-08-14T09:27:39.256Z,52.6
2018-08-14T09:28:29.341Z,52.7
2018-08-14T09:29:19.428Z,52.8
2018-08-14T09:30:09.900Z,52.9
2018-08-14T09:30:58.954Z,53
2018-08-14T09:31:49.589Z,53.1
2018-08-14T09:32:39.101Z,53.2
2018-08-14T09:33:28.671Z,53.3
2018-08-14T09:34:19.756Z,53.3
2018-08-14T09:35:09.903Z,53.4
2018-08-14T09:35:59.228Z,53.6
2018-08-14T09:36:49.786Z,53.6
2018-08-14T09:37:39.481Z,53.6
2018-08-14T09:38:30.133Z,53.8
2018-08-14T09:39:20.168Z,53.9
2018-08-14T09:40:09.951Z,53.9
2018-08-14T09:40:59.530Z,54.1
2018-08-14T09:41:50.385Z,54.1
2018-08-14T09:42:40.377Z,54.2
2018-08-14T09:43:30.272Z,54.3
2018-08-14T09:44:20.287Z,54.4
2018-08-14T09:45:10.622Z,54.5
2018-08-14T09:46:00.470Z,54.6
2018-08-14T09:46:50.772Z,54.7
2018-08-14T09:47:40.517Z,54.8
2018-08-14T09:48:30.873Z,54.9
2018-08-14T09:49:20.656Z,54.9
2018-08-14T09:50:10.999Z,55
2018-08-14T09:51:01.057Z,55.1
2018-08-14T09:51:51.242Z,55.1
2018-08-14T09:52:40.916Z,55.2
2018-08-14T09:53:31.247Z,55.3
2018-08-14T09:54:21.431Z,55.4
2018-08-14T09:55:11.122Z,55.4
2018-08-14T09:56:01.488Z,55.5
2018-08-14T09:56:51.511Z,55.7
2018-08-14T09:57:41.574Z,55.8
2018-08-14T09:58:31.369Z,55.8
2018-08-14T09:59:21.711Z,56
2018-08-14T10:00:11.219Z,56.1
2018-08-14T10:01:01.562Z,56.2
2018-08-14T10:01:52.459Z,56.3
2018-08-14T10:02:41.990Z,56.3
2018-08-14T10:03:32.106Z,56.4
2018-08-14T10:04:22.152Z,56.4
2018-08-14T10:05:12.224Z,56.5
2018-08-14T10:06:01.952Z,56.6
2018-08-14T10:06:51.783Z,56.7
2018-08-14T10:07:42.130Z,56.8
2018-08-14T10:08:32.206Z,56.9
2018-08-14T10:09:21.973Z,57
2018-08-14T10:10:12.298Z,57
2018-08-14T10:11:02.643Z,57.1
2018-08-14T10:11:52.731Z,57.2
2018-08-14T10:12:42.255Z,57.3
2018-08-14T10:13:32.013Z,57.3
2018-08-14T10:14:22.082Z,57.4
2018-08-14T10:15:12.975Z,57.5
2018-08-14T10:16:03.060Z,57.6
2018-08-14T10:16:53.083Z,57.6
2018-08-14T10:17:42.920Z,57.7
2018-08-14T10:19:23.057Z,57.9
2018-08-14T10:20:12.830Z,58.1
2018-08-14T10:21:02.936Z,58.1
2018-08-14T10:21:52.684Z,58.2
2018-08-14T10:22:43.049Z,58.3
2018-08-14T10:23:33.340Z,58.3
2018-08-14T10:24:23.402Z,58.4
2018-08-14T10:25:13.737Z,58.4
2018-08-14T10:26:03.831Z,58.5
2018-08-14T10:26:54.704Z,58.6
2018-08-14T10:27:43.929Z,58.7
2018-08-14T10:28:34.420Z,58.8
2018-08-14T10:29:24.049Z,58.8
2018-08-14T10:30:13.069Z,58.9
2018-08-14T10:31:04.224Z,59
2018-08-14T10:31:54.088Z,59.1
2018-08-14T10:32:44.341Z,59.2
2018-08-14T10:33:34.116Z,59.3
2018-08-14T10:34:23.629Z,59.3
2018-08-14T10:35:14.016Z,59.4
2018-08-14T10:36:04.345Z,59.5
2018-08-14T10:36:54.619Z,59.6
2018-08-14T10:37:44.500Z,59.8
2018-08-14T10:38:34.800Z,59.8
2018-08-14T10:39:24.982Z,59.9
2018-08-14T10:40:14.793Z,60
2018-08-14T10:41:04.763Z,60.1
2018-08-14T10:41:54.234Z,60.1
2018-08-14T10:42:44.902Z,60.2
2018-08-14T10:43:34.941Z,60.3
2018-08-14T10:44:24.707Z,60.3
2018-08-14T10:45:15.067Z,60.4
2018-08-14T10:46:05.938Z,60.5
2018-08-14T10:46:54.892Z,60.6
2018-08-14T10:47:45.532Z,60.7
2018-08-14T10:48:34.801Z,60.7
2018-08-14T10:49:25.705Z,60.8
2018-08-14T10:50:15.741Z,60.8
2018-08-14T10:51:05.569Z,60.9
2018-08-14T10:51:55.351Z,60.9
2018-08-14T10:52:45.388Z,61
2018-08-14T10:53:35.161Z,61.1
2018-08-14T10:54:25.536Z,61.1
2018-08-14T10:55:15.593Z,61.1
2018-08-14T10:56:05.634Z,61.3
2018-08-14T10:56:55.964Z,61.3
2018-08-14T10:57:45.482Z,61.3
2018-08-14T10:58:36.780Z,61.4
2018-08-14T10:59:26.410Z,61.4
2018-08-14T11:00:16.217Z,61.5
2018-08-14T11:01:05.428Z,61.6
2018-08-14T11:01:56.316Z,61.6
2018-08-14T11:02:46.705Z,61.7
2018-08-14T11:03:36.723Z,61.8
2018-08-14T11:04:27.120Z,61.8
2018-08-14T11:05:16.865Z,61.9
2018-08-14T11:06:06.909Z,62
2018-08-14T11:06:56.699Z,62.1
2018-08-14T11:07:46.829Z,62.1
2018-08-14T11:08:37.205Z,62.2
2018-08-14T11:09:27.185Z,62.3
2018-08-14T11:10:17.239Z,62.3
2018-08-14T11:11:07.014Z,62.4
2018-08-14T11:11:56.798Z,62.5
2018-08-14T11:12:47.441Z,62.6
2018-08-14T11:13:36.983Z,62.6
2018-08-14T11:14:26.742Z,62.7
2018-08-14T11:15:17.419Z,62.8
2018-08-14T11:16:07.705Z,62.9
2018-08-14T11:16:57.539Z,62.9
2018-08-14T11:17:47.596Z,63
2018-08-14T11:18:37.908Z,63.1
2018-08-14T11:19:27.442Z,63.2
2018-08-14T11:20:17.596Z,63.3
2018-08-14T11:21:07.818Z,63.3
2018-08-14T11:21:57.896Z,63.3
2018-08-14T11:22:47.938Z,63.4
2018-08-14T11:23:37.808Z,63.4
2018-08-14T11:24:28.147Z,63.4
2018-08-14T11:25:18.459Z,63.6
2018-08-14T11:26:07.706Z,63.6
2018-08-14T11:26:58.041Z,63.6
2018-08-14T11:27:48.650Z,63.7
2018-08-14T11:28:37.864Z,63.7
2018-08-14T11:29:28.506Z,63.8
2018-08-14T11:30:18.564Z,63.8
2018-08-14T11:31:08.365Z,63.8
2018-08-14T11:31:58.160Z,63.8
2018-08-14T11:32:48.476Z,63.9
2018-08-14T11:33:37.973Z,63.9
2018-08-14T11:34:28.916Z,63.9
2018-08-14T11:35:18.688Z,64
2018-08-14T11:36:08.167Z,64
2018-08-14T11:36:59.052Z,64
2018-08-14T11:37:48.821Z,64.1
2018-08-14T11:38:38.934Z,64.1
2018-08-14T11:39:29.526Z,64.1
2018-08-14T11:40:19.598Z,64.1
2018-08-14T11:41:09.401Z,64.2
2018-08-14T11:41:59.166Z,64.3
2018-08-14T11:42:49.522Z,64.3
2018-08-14T11:43:39.625Z,64.3
2018-08-14T11:44:29.440Z,64.4
2018-08-14T11:45:20.028Z,64.4
2018-08-14T11:46:09.818Z,64.4
2018-08-14T11:46:59.827Z,64.5
2018-08-14T11:47:50.153Z,64.6
2018-08-14T11:48:39.945Z,64.6
2018-08-14T11:49:30.301Z,64.6
2018-08-14T11:50:20.356Z,64.6
2018-08-14T11:51:10.448Z,64.7
2018-08-14T11:52:00.540Z,64.8
2018-08-14T11:52:50.619Z,64.8
2018-08-14T11:53:39.554Z,64.9
2018-08-14T11:54:30.697Z,64.9
2018-08-14T11:55:20.793Z,65
2018-08-14T11:56:10.328Z,65.1
2018-08-14T11:57:00.382Z,65.1
2018-08-14T11:57:50.989Z,65.1
2018-08-14T11:58:40.778Z,65.2
2018-08-14T11:59:30.812Z,65.3
2018-08-14T12:00:21.197Z,65.3
2018-08-14T12:01:11.320Z,65.4
2018-08-14T12:02:01.938Z,65.4
2018-08-14T12:02:50.534Z,65.5
2018-08-14T12:03:41.197Z,65.6
2018-08-14T12:04:30.204Z,65.6
2018-08-14T12:05:20.590Z,65.7
2018-08-14T12:06:11.136Z,65.8
2018-08-14T12:07:01.449Z,65.8
2018-08-14T12:07:50.378Z,65.8
2018-08-14T12:08:40.609Z,65.8
2018-08-14T12:09:31.106Z,65.9
2018-08-14T12:10:20.887Z,65.9
2018-08-14T12:11:10.366Z,66
2018-08-14T12:12:01.308Z,66.1
2018-08-14T12:12:51.265Z,66.1
2018-08-14T12:13:40.934Z,66.2
2018-08-14T12:14:31.375Z,66.3
2018-08-14T12:15:21.099Z,66.3
2018-08-14T12:16:11.628Z,66.4
2018-08-14T12:17:01.137Z,66.4
2018-08-14T12:17:52.005Z,66.5
2018-08-14T12:18:42.583Z,66.6
2018-08-14T12:19:31.448Z,66.6
2018-08-14T12:20:21.555Z,66.7
2018-08-14T12:21:12.267Z,66.7
2018-08-14T12:22:01.513Z,66.8
2018-08-14T12:22:52.227Z,66.8
2018-08-14T12:23:41.564Z,66.8
2018-08-14T12:24:32.047Z,66.9
2018-08-14T12:25:22.130Z,66.9
2018-08-14T12:26:11.873Z,66.9
2018-08-14T12:27:01.596Z,66.9
2018-08-14T12:27:52.315Z,66.9
2018-08-14T12:28:42.919Z,66.9
2018-08-14T12:29:32.042Z,67
2018-08-14T12:30:22.458Z,67
2018-08-14T12:31:13.476Z,67.1
2018-08-14T12:32:02.152Z,67.1
2018-08-14T12:32:53.025Z,67.1
2018-08-14T12:33:42.303Z,67.1
2018-08-14T12:34:33.141Z,67.1
2018-08-14T12:35:22.904Z,67.2
2018-08-14T12:36:12.484Z,67.1
2018-08-14T12:37:02.965Z,67.1
2018-08-14T12:37:52.822Z,67.1
2018-08-14T12:38:43.662Z,67.2
2018-08-14T12:39:32.750Z,67.2
2018-08-14T12:40:24.454Z,67.2
2018-08-14T12:41:12.979Z,67.2
2018-08-14T12:42:03.144Z,67.2
2018-08-14T12:42:54.030Z,67.2
2018-08-14T12:43:43.159Z,67.2
2018-08-14T12:44:34.392Z,67.2
2018-08-14T12:45:23.877Z,67.2
2018-08-14T12:46:14.040Z,67.2
2018-08-14T12:47:03.470Z,67.2
2018-08-14T12:47:53.912Z,67.2
2018-08-14T12:48:43.665Z,67.2
2018-08-14T12:49:33.530Z,67.2
2018-08-14T12:50:23.668Z,67.2
2018-08-14T12:51:14.104Z,67.2
2018-08-14T12:52:03.957Z,67.1
2018-08-14T12:52:54.267Z,67.1
2018-08-14T12:53:44.395Z,67.1
2018-08-14T12:54:34.596Z,67.1
2018-08-14T12:55:23.681Z,67.1
2018-08-14T12:56:14.210Z,67.1
2018-08-14T12:57:04.608Z,67.1
2018-08-14T12:57:54.578Z,67.1
2018-08-14T12:58:45.213Z,67.1
2018-08-14T12:59:35.533Z,67.1
2018-08-14T13:00:25.550Z,67.1
2018-08-14T13:01:15.651Z,67.1
2018-08-14T13:02:05.991Z,67.1
2018-08-14T13:02:55.922Z,67.1
2018-08-14T13:03:45.850Z,67.1
2018-08-14T13:04:35.388Z,67.1
2018-08-14T13:05:25.417Z,67.1
2018-08-14T13:06:16.335Z,67.1
2018-08-14T13:07:05.834Z,67.1
2018-08-14T13:07:56.175Z,67.1
2018-08-14T13:08:47.796Z,67.1
2018-08-14T13:09:36.278Z,67.1
2018-08-14T13:10:26.621Z,67.1
2018-08-14T13:11:16.728Z,67.1
2018-08-14T13:12:05.947Z,67.1
2018-08-14T13:12:56.320Z,67.1
2018-08-14T13:13:46.395Z,67.1
2018-08-14T13:14:36.489Z,67.1
2018-08-14T13:15:27.078Z,67.1
2018-08-14T13:16:16.877Z,67.1
2018-08-14T13:17:07.183Z,67
2018-08-14T13:17:56.995Z,67
2018-08-14T13:18:47.069Z,67
2018-08-14T13:19:37.116Z,67
2018-08-14T13:20:27.652Z,67
2018-08-14T13:21:17.555Z,67
2018-08-14T13:22:07.293Z,67
2018-08-14T13:22:57.335Z,67
2018-08-14T13:23:47.680Z,67
2018-08-14T13:24:37.477Z,67
2018-08-14T13:25:27.523Z,67
2018-08-14T13:26:17.590Z,67
2018-08-14T13:27:07.640Z,66.9
2018-08-14T13:27:57.710Z,66.9
2018-08-14T13:28:48.051Z,66.9
2018-08-14T13:29:38.115Z,66.9
2018-08-14T13:30:27.949Z,66.9
2018-08-14T13:31:18.278Z,66.9
2018-08-14T13:32:08.057Z,66.9
2018-08-14T13:32:59.289Z,66.9
2018-08-14T13:33:48.226Z,66.9
2018-08-14T13:34:37.716Z,66.9
2018-08-14T13:35:28.615Z,66.9
2018-08-14T13:36:18.146Z,66.9
2018-08-14T13:37:08.779Z,66.9
2018-08-14T13:37:58.255Z,66.9
2018-08-14T13:38:48.059Z,66.9
2018-08-14T13:39:38.091Z,66.9
2018-08-14T13:40:29.085Z,66.9
2018-08-14T13:41:18.330Z,66.9
2018-08-14T13:42:08.545Z,66.9
2018-08-14T13:42:58.391Z,66.9
2018-08-14T13:43:48.694Z,66.8
2018-08-14T13:44:39.312Z,66.8
2018-08-14T13:45:28.562Z,66.8
2018-08-14T13:46:19.450Z,66.8
2018-08-14T13:47:09.251Z,66.9
2018-08-14T13:47:59.473Z,66.8
2018-08-14T13:48:49.628Z,66.8
2018-08-14T13:49:39.426Z,66.8
2018-08-14T13:50:29.797Z,66.8
2018-08-14T13:51:19.283Z,66.8
2018-08-14T13:52:09.897Z,66.8
2018-08-14T13:52:59.720Z,66.8
2018-08-14T13:53:50.542Z,66.8
2018-08-14T13:54:39.834Z,66.8
2018-08-14T13:55:29.331Z,66.8
2018-08-14T13:56:19.397Z,66.8
2018-08-14T13:57:09.210Z,66.8
2018-08-14T13:57:59.556Z,66.8
2018-08-14T13:58:49.956Z,66.8
2018-08-14T13:59:40.235Z,66.8
2018-08-14T14:00:30.035Z,66.8
2018-08-14T14:01:20.092Z,66.8
2018-08-14T14:02:09.883Z,66.8
2018-08-14T14:03:00.790Z,66.7
2018-08-14T14:03:50.884Z,66.8
2018-08-14T14:04:40.671Z,66.7
2018-08-14T14:05:30.746Z,66.7
2018-08-14T14:06:20.558Z,66.7
2018-08-14T14:07:10.848Z,66.8
2018-08-14T14:08:01.165Z,66.7
2018-08-14T14:08:50.398Z,66.7
2018-08-14T14:09:41.264Z,66.7
2018-08-14T14:10:31.063Z,66.7
2018-08-14T14:11:21.425Z,66.7
2018-08-14T14:12:10.935Z,66.7
2018-08-14T14:13:00.716Z,66.7
2018-08-14T14:13:51.048Z,66.6
2018-08-14T14:14:41.710Z,66.6
2018-08-14T14:15:31.210Z,66.6
2018-08-14T14:16:21.774Z,66.6
2018-08-14T14:17:11.565Z,66.6
2018-08-14T14:18:01.979Z,66.6
2018-08-14T14:18:51.718Z,66.6
2018-08-14T14:19:41.765Z,66.6
2018-08-14T14:20:32.161Z,66.6
2018-08-14T14:21:21.641Z,66.6
2018-08-14T14:22:11.976Z,66.6
2018-08-14T14:23:02.079Z,66.6
2018-08-14T14:23:52.083Z,66.6
2018-08-14T14:24:42.431Z,66.6
2018-08-14T14:25:32.551Z,66.6
2018-08-14T14:26:22.577Z,66.6
2018-08-14T14:27:12.111Z,66.6
2018-08-14T14:28:01.704Z,66.6
2018-08-14T14:28:53.042Z,66.6
2018-08-14T14:29:42.844Z,66.6
2018-08-14T14:30:32.349Z,66.6
2018-08-14T14:31:22.712Z,66.5
2018-08-14T14:32:12.501Z,66.5
2018-08-14T14:33:02.852Z,66.5
2018-08-14T14:33:53.163Z,66.5
2018-08-14T14:34:42.992Z,66.5
2018-08-14T14:35:33.037Z,66.5
2018-08-14T14:36:22.344Z,66.5
2018-08-14T14:37:12.563Z,66.5
2018-08-14T14:38:03.272Z,66.4
2018-08-14T14:38:53.602Z,66.4
2018-08-14T14:39:43.428Z,66.4
2018-08-14T14:40:33.715Z,66.5
2018-08-14T14:41:23.759Z,66.4
2018-08-14T14:42:13.579Z,66.4
2018-08-14T14:43:03.922Z,66.4
2018-08-14T14:43:53.430Z,66.4
2018-08-14T14:44:43.507Z,66.4
2018-08-14T14:45:34.088Z,66.4
2018-08-14T14:46:23.619Z,66.4
2018-08-14T14:47:13.679Z,66.4
2018-08-14T14:48:04.060Z,66.4
2018-08-14T14:48:54.085Z,66.4
2018-08-14T14:49:44.598Z,66.4
2018-08-14T14:50:34.319Z,66.4
2018-08-14T14:51:24.537Z,66.4
2018-08-14T14:52:14.604Z,66.4
2018-08-14T14:53:04.110Z,66.4
2018-08-14T14:53:54.482Z,66.4
2018-08-14T14:54:44.529Z,66.4
2018-08-14T14:55:34.622Z,66.3
2018-08-14T14:56:24.639Z,66.3
2018-08-14T14:57:14.731Z,66.3
2018-08-14T14:58:05.060Z,66.3
2018-08-14T14:58:54.853Z,66.3
2018-08-14T14:59:45.226Z,66.3
2018-08-14T15:00:35.043Z,66.3
2018-08-14T15:01:25.055Z,66.3
2018-08-14T15:02:15.394Z,66.3
2018-08-14T15:03:05.506Z,66.3
2018-08-14T15:03:55.565Z,66.3
2018-08-14T15:04:45.612Z,66.3
2018-08-14T15:05:35.370Z,66.3
2018-08-14T15:06:25.449Z,66.3
2018-08-14T15:07:15.803Z,66.3
2018-08-14T15:08:05.597Z,66.3
2018-08-14T15:08:54.642Z,66.3
2018-08-14T15:09:44.925Z,66.3
2018-08-14T15:10:35.783Z,66.3
2018-08-14T15:11:25.871Z,66.3
2018-08-14T15:12:15.938Z,66.3
2018-08-14T15:13:06.028Z,66.2
2018-08-14T15:13:55.783Z,66.2
2018-08-14T15:14:45.847Z,66.2
2018-08-14T15:15:36.183Z,66.2
2018-08-14T15:16:26.212Z,66.2
2018-08-14T15:17:16.291Z,66.2
2018-08-14T15:18:06.143Z,66.2
2018-08-14T15:18:56.229Z,66.2
2018-08-14T15:19:46.538Z,66.2
2018-08-14T15:20:36.818Z,66.2
2018-08-14T15:21:26.923Z,66.1
2018-08-14T15:22:16.706Z,66.1
2018-08-14T15:23:07.044Z,66.2
2018-08-14T15:23:57.099Z,66.1
2018-08-14T15:24:46.651Z,66.1
2018-08-14T15:25:37.262Z,66.1
2018-08-14T15:26:26.713Z,66.1
2018-08-14T15:27:17.083Z,66.1
2018-08-14T15:28:06.570Z,66.1
2018-08-14T15:28:57.195Z,66.1
2018-08-14T15:29:47.304Z,66.1
2018-08-14T15:30:37.344Z,66.1
2018-08-14T15:31:27.156Z,66.1
2018-08-14T15:32:17.435Z,66.1
2018-08-14T15:33:07.245Z,66.1
2018-08-14T15:33:57.832Z,66.1
2018-08-14T15:34:47.915Z,66.1
2018-08-14T15:35:37.972Z,66.1
2018-08-14T15:36:27.775Z,66.1
2018-08-14T15:37:18.112Z,66.1
2018-08-14T15:38:08.179Z,66
2018-08-14T15:38:58.224Z,66
2018-08-14T15:39:48.297Z,66
2018-08-14T15:40:38.359Z,66
2018-08-14T15:41:28.445Z,66
2018-08-14T15:42:18.044Z,66
2018-08-14T15:43:08.577Z,66
2018-08-14T15:43:58.648Z,66
2018-08-14T15:44:48.447Z,66
2018-08-14T15:45:38.800Z,66
2018-08-14T15:46:28.015Z,65.9
2018-08-14T15:47:18.398Z,65.9
2018-08-14T15:48:08.752Z,65.9
2018-08-14T15:48:58.579Z,65.9
2018-08-14T15:49:50.655Z,65.9
2018-08-14T15:50:39.179Z,65.9
2018-08-14T15:51:29.278Z,65.9
2018-08-14T15:52:19.038Z,65.9
2018-08-14T15:53:08.836Z,65.9
2018-08-14T15:53:59.422Z,65.9
2018-08-14T15:54:49.281Z,65.9
2018-08-14T15:55:38.754Z,65.9
2018-08-14T15:56:29.336Z,65.9
2018-08-14T15:57:19.716Z,65.9
2018-08-14T15:58:08.644Z,65.9
2018-08-14T15:58:59.563Z,65.9
2018-08-14T15:59:49.885Z,65.9
2018-08-14T16:00:39.706Z,65.9
2018-08-14T16:01:30.048Z,65.9
2018-08-14T16:02:19.509Z,65.9
2018-08-14T16:03:09.364Z,65.8
2018-08-14T16:22:06.034Z,65.7
2018-08-14T16:22:56.400Z,65.7
2018-08-14T16:23:45.891Z,65.7
2018-08-14T16:24:36.171Z,65.7
2018-08-14T16:25:26.572Z,65.7
2018-08-14T16:26:16.383Z,65.7
2018-08-14T16:27:06.436Z,65.7
2018-08-14T16:27:55.917Z,65.6
2018-08-14T16:28:46.277Z,65.6
2018-08-14T16:29:36.359Z,65.6
2018-08-14T16:30:26.654Z,65.6
2018-08-14T16:31:16.457Z,65.6
2018-08-14T16:32:06.818Z,65.6